Victoria, IL (61485)

1:55 AM CST on January 19, 2017 (GMT -0600)
La Fayette (Knox County) | | Change Station

Elev 751 ft 41.10 °N, 90.00 °W | Updated 22 seconds ago

Partly Cloudy
Partly Cloudy
32.2 °F
Feels Like 32 °F
N
2.0
Wind Variable Wind from SE

Today
High -- | Low -- °F
--% Chance of Precip.
Yesterday
High -- | Low -- °F
Precip. -- in
Pressure 30.01 in
Visibility 5.0 miles
Clouds Clear
Windchill 32 °F
Dew Point 30 °F
Humidity 93%
Rainfall 0.00 in
Snow Depth Not available.
7:21 AM 5:01 PM
Waning Gibbous, 56% visible
METAR KGBG 190735Z AUTO 00000KT 5SM BR CLR 00/00 A3001 RMK AO2 T00030003
Pressure 30.01 in
Visibility 5.0 miles
Clouds Clear
Windchill 32 °F
Dew Point 30 °F
Humidity 93%
Rainfall 0.00 in
Snow Depth Not available.
7:21 AM 5:01 PM
Waning Gibbous, 56% visible
METAR KGBG 190735Z AUTO 00000KT 5SM BR CLR 00/00 A3001 RMK AO2 T00030003

Get Your Daily Forecast Email!

Thanks for signing up!

Be on the lookout for a verification email in your inbox.

You'll start receiving the daily forecast at 8 AM.

×

10-Day Weather Forecast

Almanac

Astronomy

Jan. 19, 2017 Rise Set
Actual Time
Civil Twilight
Nautical Twilight
Astronomical Twilight
Moon
Length of Visible Light
Length of Day
Tomorrow will be .
, % of the Moon is Illuminated

Today's Extremes

State Highs State Lows

Community

WunderPhotos

Upload Photos

1,962,540 photos uploaded!

WunderBlog® & News

Nearby

Air Quality

  Air Quality AQ Index Pollutant
Not available.

Snow Depth

Station Depth Elevation

Earthquake Activity

City Distance Mag. Time & Date
Minimum magnitude displayed is 2.5.

Coastal Water Temperatures

Place Temperature

Stations

Nearby Weather Stations

Station Location Temp. Windchill Dew Point Humidity Wind Precip. Elev Updated Type
                   

Watches & Warnings

There are currently no watches in effect.